sensor_id;sensor_type;location;lat;lon;timestamp;P1;durP1;ratioP1;P2;durP2;ratioP2
76617;SDS011;65509;42.816;74.648;2023-01-20T00:02:00;64.50;;;21.40;;
76617;SDS011;65509;42.816;74.648;2023-01-20T00:04:26;75.65;;;24.00;;
76617;SDS011;65509;42.816;74.648;2023-01-20T00:06:51;60.08;;;19.45;;
76617;SDS011;65509;42.816;74.648;2023-01-20T00:09:17;65.85;;;22.40;;
76617;SDS011;65509;42.816;74.648;2023-01-20T00:11:43;70.75;;;22.25;;
76617;SDS011;65509;42.816;74.648;2023-01-20T00:14:11;52.13;;;17.98;;
76617;SDS011;65509;42.816;74.648;2023-01-20T00:16:36;62.33;;;21.25;;
76617;SDS011;65509;42.816;74.648;2023-01-20T00:19:02;65.18;;;22.05;;
76617;SDS011;65509;42.816;74.648;2023-01-20T00:21:27;54.15;;;19.08;;
76617;SDS011;65509;42.816;74.648;2023-01-20T00:23:53;41.50;;;13.80;;
76617;SDS011;65509;42.816;74.648;2023-01-20T00:26:19;56.97;;;19.70;;
76617;SDS011;65509;42.816;74.648;2023-01-20T00:28:45;63.45;;;21.00;;
76617;SDS011;65509;42.816;74.648;2023-01-20T00:31:18;62.75;;;21.23;;
76617;SDS011;65509;42.816;74.648;2023-01-20T00:33:45;65.00;;;23.60;;
76617;SDS011;65509;42.816;74.648;2023-01-20T00:36:11;75.18;;;26.70;;
76617;SDS011;65509;42.816;74.648;2023-01-20T00:38:39;67.90;;;27.00;;
76617;SDS011;65509;42.816;74.648;2023-01-20T00:41:04;81.55;;;28.63;;
76617;SDS011;65509;42.816;74.648;2023-01-20T00:43:30;63.80;;;24.73;;
76617;SDS011;65509;42.816;74.648;2023-01-20T00:45:55;56.25;;;20.05;;
76617;SDS011;65509;42.816;74.648;2023-01-20T00:48:21;48.25;;;17.80;;
76617;SDS011;65509;42.816;74.648;2023-01-20T00:50:46;39.63;;;15.52;;
76617;SDS011;65509;42.816;74.648;2023-01-20T00:53:11;41.70;;;13.88;;
76617;SDS011;65509;42.816;74.648;2023-01-20T00:55:37;33.50;;;12.35;;
76617;SDS011;65509;42.816;74.648;2023-01-20T00:58:02;36.67;;;12.10;;
76617;SDS011;65509;42.816;74.648;2023-01-20T01:00:27;35.70;;;12.57;;
76617;SDS011;65509;42.816;74.648;2023-01-20T01:02:53;40.15;;;13.40;;
76617;SDS011;65509;42.816;74.648;2023-01-20T01:05:18;46.00;;;13.18;;
76617;SDS011;65509;42.816;74.648;2023-01-20T01:07:44;33.42;;;10.52;;
76617;SDS011;65509;42.816;74.648;2023-01-20T01:10:09;31.02;;;9.77;;
76617;SDS011;65509;42.816;74.648;2023-01-20T01:12:35;24.83;;;8.27;;
76617;SDS011;65509;42.816;74.648;2023-01-20T01:15:00;33.40;;;10.55;;
76617;SDS011;65509;42.816;74.648;2023-01-20T01:17:26;23.90;;;8.52;;
76617;SDS011;65509;42.816;74.648;2023-01-20T01:19:51;19.92;;;7.70;;
76617;SDS011;65509;42.816;74.648;2023-01-20T01:22:17;23.63;;;8.07;;
76617;SDS011;65509;42.816;74.648;2023-01-20T01:24:43;34.25;;;11.68;;
76617;SDS011;65509;42.816;74.648;2023-01-20T01:27:09;42.63;;;13.05;;
76617;SDS011;65509;42.816;74.648;2023-01-20T01:29:34;33.03;;;11.15;;
76617;SDS011;65509;42.816;74.648;2023-01-20T01:31:59;36.08;;;11.95;;
76617;SDS011;65509;42.816;74.648;2023-01-20T01:34:25;32.38;;;12.43;;
76617;SDS011;65509;42.816;74.648;2023-01-20T01:36:50;32.28;;;11.00;;
76617;SDS011;65509;42.816;74.648;2023-01-20T01:39:15;28.55;;;10.02;;
76617;SDS011;65509;42.816;74.648;2023-01-20T01:41:41;41.50;;;12.95;;
76617;SDS011;65509;42.816;74.648;2023-01-20T01:44:07;39.58;;;13.70;;
76617;SDS011;65509;42.816;74.648;2023-01-20T01:46:33;47.03;;;16.63;;
76617;SDS011;65509;42.816;74.648;2023-01-20T01:49:10;60.65;;;18.75;;
76617;SDS011;65509;42.816;74.648;2023-01-20T01:51:38;43.78;;;15.75;;
76617;SDS011;65509;42.816;74.648;2023-01-20T01:54:07;42.30;;;15.65;;
76617;SDS011;65509;42.816;74.648;2023-01-20T01:56:33;45.95;;;16.10;;
76617;SDS011;65509;42.816;74.648;2023-01-20T01:59:00;36.70;;;13.70;;
76617;SDS011;65509;42.816;74.648;2023-01-20T02:01:26;33.80;;;12.45;;
76617;SDS011;65509;42.816;74.648;2023-01-20T02:04:09;26.73;;;9.18;;
76617;SDS011;65509;42.816;74.648;2023-01-20T02:06:40;36.85;;;10.98;;
76617;SDS011;65509;42.816;74.648;2023-01-20T02:09:07;27.42;;;9.02;;
76617;SDS011;65509;42.816;74.648;2023-01-20T02:11:49;29.35;;;10.27;;
76617;SDS011;65509;42.816;74.648;2023-01-20T02:14:20;49.33;;;15.67;;
76617;SDS011;65509;42.816;74.648;2023-01-20T02:16:50;76.15;;;30.52;;
76617;SDS011;65509;42.816;74.648;2023-01-20T02:27:17;105.00;;;34.95;;
76617;SDS011;65509;42.816;74.648;2023-01-20T02:32:40;93.70;;;30.92;;
76617;SDS011;65509;42.816;74.648;2023-01-20T02:35:10;87.88;;;29.52;;
76617;SDS011;65509;42.816;74.648;2023-01-20T02:38:20;113.18;;;37.85;;
76617;SDS011;65509;42.816;74.648;2023-01-20T02:40:40;152.90;;;49.13;;
76617;SDS011;65509;42.816;74.648;2023-01-20T02:43:17;99.85;;;35.65;;
76617;SDS011;65509;42.816;74.648;2023-01-20T02:45:44;100.47;;;34.58;;
76617;SDS011;65509;42.816;74.648;2023-01-20T02:53:05;93.47;;;35.58;;
76617;SDS011;65509;42.816;74.648;2023-01-20T02:55:47;97.35;;;36.40;;
76617;SDS011;65509;42.816;74.648;2023-01-20T03:00:58;91.68;;;31.30;;
76617;SDS011;65509;42.816;74.648;2023-01-20T03:03:30;83.10;;;29.75;;
76617;SDS011;65509;42.816;74.648;2023-01-20T03:05:57;82.18;;;30.45;;
76617;SDS011;65509;42.816;74.648;2023-01-20T03:08:24;128.68;;;46.42;;
76617;SDS011;65509;42.816;74.648;2023-01-20T03:10:50;129.63;;;43.35;;
76617;SDS011;65509;42.816;74.648;2023-01-20T03:16:07;82.68;;;29.80;;
76617;SDS011;65509;42.816;74.648;2023-01-20T03:18:31;69.00;;;27.23;;
76617;SDS011;65509;42.816;74.648;2023-01-20T03:20:57;62.28;;;24.05;;
76617;SDS011;65509;42.816;74.648;2023-01-20T03:23:24;69.50;;;25.98;;
76617;SDS011;65509;42.816;74.648;2023-01-20T03:25:50;73.60;;;30.73;;
76617;SDS011;65509;42.816;74.648;2023-01-20T03:28:15;105.70;;;39.28;;
76617;SDS011;65509;42.816;74.648;2023-01-20T03:30:41;122.03;;;46.40;;
76617;SDS011;65509;42.816;74.648;2023-01-20T03:33:06;132.20;;;51.00;;
76617;SDS011;65509;42.816;74.648;2023-01-20T03:35:32;116.93;;;49.35;;
76617;SDS011;65509;42.816;74.648;2023-01-20T03:37:58;106.25;;;42.20;;
76617;SDS011;65509;42.816;74.648;2023-01-20T03:40:24;127.00;;;47.58;;
76617;SDS011;65509;42.816;74.648;2023-01-20T03:42:52;133.93;;;57.65;;
76617;SDS011;65509;42.816;74.648;2023-01-20T03:48:33;114.65;;;49.58;;
76617;SDS011;65509;42.816;74.648;2023-01-20T03:50:58;98.03;;;40.30;;
76617;SDS011;65509;42.816;74.648;2023-01-20T03:56:08;133.80;;;55.25;;
76617;SDS011;65509;42.816;74.648;2023-01-20T03:58:38;150.93;;;60.78;;
76617;SDS011;65509;42.816;74.648;2023-01-20T04:01:05;93.00;;;38.33;;
76617;SDS011;65509;42.816;74.648;2023-01-20T04:03:32;84.45;;;36.60;;
76617;SDS011;65509;42.816;74.648;2023-01-20T04:05:59;79.45;;;33.88;;
76617;SDS011;65509;42.816;74.648;2023-01-20T04:08:28;90.03;;;34.03;;
76617;SDS011;65509;42.816;74.648;2023-01-20T04:10:54;86.60;;;36.17;;
76617;SDS011;65509;42.816;74.648;2023-01-20T04:13:22;98.05;;;39.00;;
76617;SDS011;65509;42.816;74.648;2023-01-20T04:15:47;99.90;;;41.08;;
76617;SDS011;65509;42.816;74.648;2023-01-20T04:18:20;110.18;;;44.30;;
76617;SDS011;65509;42.816;74.648;2023-01-20T04:20:47;87.65;;;35.00;;
76617;SDS011;65509;42.816;74.648;2023-01-20T04:23:16;74.00;;;29.90;;
76617;SDS011;65509;42.816;74.648;2023-01-20T04:25:42;53.85;;;20.27;;
76617;SDS011;65509;42.816;74.648;2023-01-20T04:28:08;54.33;;;21.30;;
76617;SDS011;65509;42.816;74.648;2023-01-20T04:30:33;50.90;;;21.02;;
76617;SDS011;65509;42.816;74.648;2023-01-20T04:32:58;78.55;;;30.42;;
76617;SDS011;65509;42.816;74.648;2023-01-20T04:35:24;69.78;;;27.02;;
76617;SDS011;65509;42.816;74.648;2023-01-20T04:37:49;63.75;;;23.75;;
76617;SDS011;65509;42.816;74.648;2023-01-20T04:40:15;73.78;;;27.80;;
76617;SDS011;65509;42.816;74.648;2023-01-20T04:42:40;72.47;;;26.85;;
76617;SDS011;65509;42.816;74.648;2023-01-20T04:45:06;64.57;;;27.63;;
76617;SDS011;65509;42.816;74.648;2023-01-20T04:47:31;80.57;;;32.17;;
76617;SDS011;65509;42.816;74.648;2023-01-20T04:49:57;122.00;;;51.95;;
76617;SDS011;65509;42.816;74.648;2023-01-20T04:52:23;154.23;;;59.83;;
76617;SDS011;65509;42.816;74.648;2023-01-20T04:54:48;104.72;;;44.80;;
76617;SDS011;65509;42.816;74.648;2023-01-20T04:57:14;112.53;;;46.72;;
76617;SDS011;65509;42.816;74.648;2023-01-20T04:59:40;118.88;;;50.20;;
76617;SDS011;65509;42.816;74.648;2023-01-20T05:02:05;126.97;;;57.50;;
76617;SDS011;65509;42.816;74.648;2023-01-20T05:04:31;156.32;;;65.10;;
76617;SDS011;65509;42.816;74.648;2023-01-20T05:06:56;148.10;;;62.80;;
76617;SDS011;65509;42.816;74.648;2023-01-20T05:09:22;151.45;;;61.92;;
76617;SDS011;65509;42.816;74.648;2023-01-20T05:11:47;153.25;;;66.93;;
76617;SDS011;65509;42.816;74.648;2023-01-20T05:14:12;147.15;;;64.30;;
76617;SDS011;65509;42.816;74.648;2023-01-20T05:16:38;162.43;;;69.47;;
76617;SDS011;65509;42.816;74.648;2023-01-20T05:19:03;152.65;;;67.45;;
76617;SDS011;65509;42.816;74.648;2023-01-20T05:21:29;152.55;;;66.50;;
76617;SDS011;65509;42.816;74.648;2023-01-20T05:23:55;138.93;;;63.00;;
76617;SDS011;65509;42.816;74.648;2023-01-20T05:26:24;144.50;;;63.13;;
76617;SDS011;65509;42.816;74.648;2023-01-20T05:28:49;134.63;;;59.70;;
76617;SDS011;65509;42.816;74.648;2023-01-20T05:31:15;117.60;;;53.63;;
76617;SDS011;65509;42.816;74.648;2023-01-20T05:33:43;144.90;;;62.28;;
76617;SDS011;65509;42.816;74.648;2023-01-20T05:36:09;139.80;;;63.13;;
76617;SDS011;65509;42.816;74.648;2023-01-20T05:38:34;223.13;;;95.28;;
76617;SDS011;65509;42.816;74.648;2023-01-20T05:41:00;245.60;;;110.07;;
76617;SDS011;65509;42.816;74.648;2023-01-20T05:43:26;330.20;;;147.02;;
76617;SDS011;65509;42.816;74.648;2023-01-20T05:45:51;378.95;;;170.55;;
76617;SDS011;65509;42.816;74.648;2023-01-20T05:48:17;377.98;;;171.00;;
76617;SDS011;65509;42.816;74.648;2023-01-20T05:50:42;398.00;;;178.75;;
76617;SDS011;65509;42.816;74.648;2023-01-20T05:53:08;361.25;;;161.73;;
76617;SDS011;65509;42.816;74.648;2023-01-20T05:55:33;372.02;;;160.05;;
76617;SDS011;65509;42.816;74.648;2023-01-20T05:58:02;365.20;;;161.60;;
76617;SDS011;65509;42.816;74.648;2023-01-20T06:00:28;397.38;;;170.65;;
76617;SDS011;65509;42.816;74.648;2023-01-20T06:02:53;409.05;;;176.10;;
76617;SDS011;65509;42.816;74.648;2023-01-20T06:05:18;400.55;;;169.00;;
76617;SDS011;65509;42.816;74.648;2023-01-20T06:07:44;399.45;;;171.20;;
76617;SDS011;65509;42.816;74.648;2023-01-20T06:10:09;403.95;;;172.70;;
76617;SDS011;65509;42.816;74.648;2023-01-20T06:12:35;418.85;;;181.27;;
76617;SDS011;65509;42.816;74.648;2023-01-20T06:15:00;425.70;;;185.63;;
76617;SDS011;65509;42.816;74.648;2023-01-20T06:17:26;426.90;;;185.77;;
76617;SDS011;65509;42.816;74.648;2023-01-20T06:19:51;429.02;;;191.80;;
76617;SDS011;65509;42.816;74.648;2023-01-20T06:22:17;442.77;;;203.32;;
76617;SDS011;65509;42.816;74.648;2023-01-20T06:24:44;468.95;;;215.63;;
76617;SDS011;65509;42.816;74.648;2023-01-20T06:27:09;461.77;;;214.63;;
76617;SDS011;65509;42.816;74.648;2023-01-20T06:29:35;449.30;;;206.48;;
76617;SDS011;65509;42.816;74.648;2023-01-20T06:32:00;462.17;;;217.23;;
76617;SDS011;65509;42.816;74.648;2023-01-20T06:34:26;469.33;;;218.77;;
76617;SDS011;65509;42.816;74.648;2023-01-20T06:36:51;475.33;;;222.00;;
76617;SDS011;65509;42.816;74.648;2023-01-20T06:39:17;520.63;;;258.30;;
76617;SDS011;65509;42.816;74.648;2023-01-20T06:41:42;530.65;;;272.30;;
76617;SDS011;65509;42.816;74.648;2023-01-20T06:44:07;559.08;;;281.25;;
76617;SDS011;65509;42.816;74.648;2023-01-20T06:46:33;560.40;;;282.08;;
76617;SDS011;65509;42.816;74.648;2023-01-20T06:48:58;549.17;;;275.27;;
76617;SDS011;65509;42.816;74.648;2023-01-20T06:51:27;548.45;;;273.25;;
76617;SDS011;65509;42.816;74.648;2023-01-20T06:53:53;571.80;;;297.35;;
76617;SDS011;65509;42.816;74.648;2023-01-20T06:56:18;608.45;;;311.15;;
76617;SDS011;65509;42.816;74.648;2023-01-20T06:58:44;620.75;;;328.83;;
76617;SDS011;65509;42.816;74.648;2023-01-20T07:01:11;674.03;;;352.90;;
76617;SDS011;65509;42.816;74.648;2023-01-20T07:03:36;678.20;;;355.27;;
76617;SDS011;65509;42.816;74.648;2023-01-20T07:06:03;684.08;;;363.85;;
76617;SDS011;65509;42.816;74.648;2023-01-20T07:08:29;714.95;;;379.92;;
76617;SDS011;65509;42.816;74.648;2023-01-20T07:10:55;714.78;;;387.27;;
76617;SDS011;65509;42.816;74.648;2023-01-20T07:13:21;750.85;;;403.55;;
76617;SDS011;65509;42.816;74.648;2023-01-20T07:15:46;729.63;;;399.20;;
76617;SDS011;65509;42.816;74.648;2023-01-20T07:18:12;743.58;;;399.00;;
76617;SDS011;65509;42.816;74.648;2023-01-20T07:20:37;749.42;;;401.20;;
76617;SDS011;65509;42.816;74.648;2023-01-20T07:23:03;746.75;;;398.23;;
76617;SDS011;65509;42.816;74.648;2023-01-20T07:25:28;838.60;;;460.98;;
76617;SDS011;65509;42.816;74.648;2023-01-20T07:27:53;902.60;;;496.83;;
76617;SDS011;65509;42.816;74.648;2023-01-20T07:30:19;922.20;;;506.80;;
76617;SDS011;65509;42.816;74.648;2023-01-20T07:32:44;931.80;;;510.33;;
76617;SDS011;65509;42.816;74.648;2023-01-20T07:35:09;920.03;;;504.50;;
76617;SDS011;65509;42.816;74.648;2023-01-20T07:37:35;941.63;;;512.45;;
76617;SDS011;65509;42.816;74.648;2023-01-20T07:40:00;947.90;;;513.53;;
76617;SDS011;65509;42.816;74.648;2023-01-20T07:42:26;938.60;;;506.55;;
76617;SDS011;65509;42.816;74.648;2023-01-20T07:44:51;996.83;;;532.90;;
76617;SDS011;65509;42.816;74.648;2023-01-20T07:47:17;920.50;;;498.75;;
76617;SDS011;65509;42.816;74.648;2023-01-20T07:49:42;961.58;;;505.58;;
76617;SDS011;65509;42.816;74.648;2023-01-20T07:52:07;949.65;;;504.67;;
76617;SDS011;65509;42.816;74.648;2023-01-20T07:54:33;971.90;;;527.67;;
76617;SDS011;65509;42.816;74.648;2023-01-20T07:56:58;949.10;;;504.33;;
76617;SDS011;65509;42.816;74.648;2023-01-20T07:59:24;890.78;;;471.10;;
76617;SDS011;65509;42.816;74.648;2023-01-20T08:01:50;849.95;;;448.17;;
76617;SDS011;65509;42.816;74.648;2023-01-20T08:04:15;819.35;;;431.60;;
76617;SDS011;65509;42.816;74.648;2023-01-20T08:06:42;813.83;;;430.77;;
76617;SDS011;65509;42.816;74.648;2023-01-20T08:09:07;775.63;;;397.80;;
76617;SDS011;65509;42.816;74.648;2023-01-20T08:11:36;796.45;;;413.38;;
76617;SDS011;65509;42.816;74.648;2023-01-20T08:14:01;790.70;;;412.27;;
76617;SDS011;65509;42.816;74.648;2023-01-20T08:16:27;815.60;;;428.00;;
76617;SDS011;65509;42.816;74.648;2023-01-20T08:18:52;787.50;;;413.20;;
76617;SDS011;65509;42.816;74.648;2023-01-20T08:21:20;754.53;;;383.13;;
76617;SDS011;65509;42.816;74.648;2023-01-20T08:23:45;710.90;;;369.65;;
76617;SDS011;65509;42.816;74.648;2023-01-20T08:26:11;688.85;;;356.63;;
76617;SDS011;65509;42.816;74.648;2023-01-20T08:28:36;700.45;;;358.20;;
76617;SDS011;65509;42.816;74.648;2023-01-20T08:31:06;691.05;;;357.40;;
76617;SDS011;65509;42.816;74.648;2023-01-20T08:33:31;677.85;;;346.65;;
76617;SDS011;65509;42.816;74.648;2023-01-20T08:36:02;692.30;;;348.90;;
76617;SDS011;65509;42.816;74.648;2023-01-20T08:38:27;717.85;;;364.88;;
76617;SDS011;65509;42.816;74.648;2023-01-20T08:40:53;701.85;;;356.30;;
76617;SDS011;65509;42.816;74.648;2023-01-20T08:43:18;675.30;;;335.40;;
76617;SDS011;65509;42.816;74.648;2023-01-20T08:45:44;656.00;;;322.83;;
76617;SDS011;65509;42.816;74.648;2023-01-20T08:48:09;487.88;;;210.80;;
76617;SDS011;65509;42.816;74.648;2023-01-20T08:50:35;461.27;;;202.10;;
76617;SDS011;65509;42.816;74.648;2023-01-20T08:53:00;423.10;;;172.43;;
76617;SDS011;65509;42.816;74.648;2023-01-20T08:55:28;406.33;;;158.43;;
76617;SDS011;65509;42.816;74.648;2023-01-20T08:57:57;409.83;;;159.85;;
76617;SDS011;65509;42.816;74.648;2023-01-20T09:00:22;425.83;;;167.50;;
76617;SDS011;65509;42.816;74.648;2023-01-20T09:02:47;448.23;;;190.32;;
76617;SDS011;65509;42.816;74.648;2023-01-20T09:05:13;480.83;;;206.02;;
76617;SDS011;65509;42.816;74.648;2023-01-20T09:07:38;422.85;;;166.00;;
76617;SDS011;65509;42.816;74.648;2023-01-20T09:10:04;387.85;;;156.30;;
76617;SDS011;65509;42.816;74.648;2023-01-20T09:12:29;312.80;;;127.60;;
76617;SDS011;65509;42.816;74.648;2023-01-20T09:14:55;261.95;;;104.55;;
76617;SDS011;65509;42.816;74.648;2023-01-20T09:17:20;213.15;;;82.07;;
76617;SDS011;65509;42.816;74.648;2023-01-20T09:19:45;227.40;;;87.03;;
76617;SDS011;65509;42.816;74.648;2023-01-20T09:22:11;252.05;;;99.35;;
76617;SDS011;65509;42.816;74.648;2023-01-20T09:24:36;253.15;;;98.25;;
76617;SDS011;65509;42.816;74.648;2023-01-20T09:27:02;601.15;;;292.00;;
76617;SDS011;65509;42.816;74.648;2023-01-20T09:29:27;630.83;;;312.70;;
76617;SDS011;65509;42.816;74.648;2023-01-20T09:31:54;650.15;;;323.63;;
76617;SDS011;65509;42.816;74.648;2023-01-20T09:34:26;677.97;;;339.30;;
76617;SDS011;65509;42.816;74.648;2023-01-20T09:36:56;695.20;;;350.25;;
76617;SDS011;65509;42.816;74.648;2023-01-20T09:39:22;698.58;;;352.83;;
76617;SDS011;65509;42.816;74.648;2023-01-20T09:47:36;672.75;;;333.10;;
76617;SDS011;65509;42.816;74.648;2023-01-20T09:50:21;666.17;;;326.00;;
76617;SDS011;65509;42.816;74.648;2023-01-20T09:53:09;669.53;;;325.70;;
76617;SDS011;65509;42.816;74.648;2023-01-20T09:58:14;597.60;;;284.88;;
76617;SDS011;65509;42.816;74.648;2023-01-20T10:00:41;561.03;;;261.95;;
76617;SDS011;65509;42.816;74.648;2023-01-20T10:03:15;580.42;;;277.30;;
76617;SDS011;65509;42.816;74.648;2023-01-20T10:05:42;585.42;;;270.73;;
76617;SDS011;65509;42.816;74.648;2023-01-20T10:11:14;602.72;;;284.98;;
76617;SDS011;65509;42.816;74.648;2023-01-20T10:13:45;628.35;;;305.15;;
76617;SDS011;65509;42.816;74.648;2023-01-20T10:19:12;688.35;;;340.90;;
76617;SDS011;65509;42.816;74.648;2023-01-20T10:21:41;698.30;;;344.73;;
76617;SDS011;65509;42.816;74.648;2023-01-20T10:24:10;707.92;;;344.33;;
76617;SDS011;65509;42.816;74.648;2023-01-20T10:26:42;733.72;;;359.63;;
76617;SDS011;65509;42.816;74.648;2023-01-20T10:29:11;709.33;;;349.38;;
76617;SDS011;65509;42.816;74.648;2023-01-20T10:31:39;732.38;;;357.38;;
76617;SDS011;65509;42.816;74.648;2023-01-20T10:34:08;716.00;;;348.58;;
76617;SDS011;65509;42.816;74.648;2023-01-20T10:36:36;743.25;;;365.92;;
76617;SDS011;65509;42.816;74.648;2023-01-20T10:39:05;734.33;;;354.75;;
76617;SDS011;65509;42.816;74.648;2023-01-20T10:44:03;746.70;;;365.52;;
76617;SDS011;65509;42.816;74.648;2023-01-20T10:56:51;693.17;;;338.40;;
76617;SDS011;65509;42.816;74.648;2023-01-20T10:59:30;705.08;;;341.77;;
76617;SDS011;65509;42.816;74.648;2023-01-20T11:01:58;674.47;;;320.60;;
76617;SDS011;65509;42.816;74.648;2023-01-20T11:04:25;623.15;;;298.25;;
76617;SDS011;65509;42.816;74.648;2023-01-20T11:06:53;676.50;;;315.95;;
76617;SDS011;65509;42.816;74.648;2023-01-20T11:09:31;667.83;;;323.65;;
76617;SDS011;65509;42.816;74.648;2023-01-20T11:11:57;668.08;;;321.23;;
76617;SDS011;65509;42.816;74.648;2023-01-20T11:14:23;688.15;;;329.52;;
76617;SDS011;65509;42.816;74.648;2023-01-20T11:16:50;679.47;;;324.50;;
76617;SDS011;65509;42.816;74.648;2023-01-20T11:19:17;643.20;;;303.75;;
76617;SDS011;65509;42.816;74.648;2023-01-20T11:21:42;585.45;;;268.20;;
76617;SDS011;65509;42.816;74.648;2023-01-20T11:27:12;662.05;;;312.67;;
76617;SDS011;65509;42.816;74.648;2023-01-20T11:29:40;634.47;;;296.80;;
76617;SDS011;65509;42.816;74.648;2023-01-20T11:32:19;641.92;;;300.52;;
76617;SDS011;65509;42.816;74.648;2023-01-20T11:34:47;605.15;;;275.98;;
76617;SDS011;65509;42.816;74.648;2023-01-20T11:37:20;629.00;;;288.85;;
76617;SDS011;65509;42.816;74.648;2023-01-20T11:42:15;691.88;;;329.02;;
76617;SDS011;65509;42.816;74.648;2023-01-20T11:44:47;703.15;;;322.63;;
76617;SDS011;65509;42.816;74.648;2023-01-20T11:49:44;652.97;;;300.83;;
76617;SDS011;65509;42.816;74.648;2023-01-20T11:52:19;687.03;;;318.65;;
76617;SDS011;65509;42.816;74.648;2023-01-20T11:54:45;672.67;;;307.90;;
76617;SDS011;65509;42.816;74.648;2023-01-20T11:57:11;688.30;;;309.77;;
76617;SDS011;65509;42.816;74.648;2023-01-20T11:59:47;645.47;;;288.52;;
76617;SDS011;65509;42.816;74.648;2023-01-20T12:09:36;620.38;;;271.77;;
76617;SDS011;65509;42.816;74.648;2023-01-20T12:15:30;649.33;;;282.33;;
76617;SDS011;65509;42.816;74.648;2023-01-20T12:17:37;570.30;;;246.63;;
76617;SDS011;65509;42.816;74.648;2023-01-20T12:20:09;558.97;;;232.55;;
76617;SDS011;65509;42.816;74.648;2023-01-20T12:25:29;578.83;;;247.35;;
76617;SDS011;65509;42.816;74.648;2023-01-20T12:28:03;579.97;;;242.10;;
76617;SDS011;65509;42.816;74.648;2023-01-20T12:30:33;552.72;;;226.65;;
76617;SDS011;65509;42.816;74.648;2023-01-20T12:33:01;533.90;;;217.00;;
76617;SDS011;65509;42.816;74.648;2023-01-20T12:35:28;535.92;;;233.13;;
76617;SDS011;65509;42.816;74.648;2023-01-20T12:37:56;545.78;;;221.40;;
76617;SDS011;65509;42.816;74.648;2023-01-20T12:40:34;563.85;;;233.82;;
76617;SDS011;65509;42.816;74.648;2023-01-20T12:43:08;552.47;;;222.88;;
76617;SDS011;65509;42.816;74.648;2023-01-20T12:46:20;560.72;;;230.15;;
76617;SDS011;65509;42.816;74.648;2023-01-20T12:48:28;533.90;;;216.48;;
76617;SDS011;65509;42.816;74.648;2023-01-20T13:08:58;597.67;;;250.95;;
76617;SDS011;65509;42.816;74.648;2023-01-20T13:14:11;655.20;;;286.20;;
76617;SDS011;65509;42.816;74.648;2023-01-20T13:16:49;575.47;;;237.27;;
76617;SDS011;65509;42.816;74.648;2023-01-20T13:21:43;603.17;;;250.63;;
76617;SDS011;65509;42.816;74.648;2023-01-20T13:24:16;586.70;;;239.93;;
76617;SDS011;65509;42.816;74.648;2023-01-20T13:26:46;615.80;;;247.73;;
76617;SDS011;65509;42.816;74.648;2023-01-20T13:29:19;710.33;;;295.67;;
76617;SDS011;65509;42.816;74.648;2023-01-20T13:31:45;704.13;;;302.85;;
76617;SDS011;65509;42.816;74.648;2023-01-20T13:41:54;645.08;;;272.00;;
76617;SDS011;65509;42.816;74.648;2023-01-20T13:44:38;621.88;;;258.42;;
76617;SDS011;65509;42.816;74.648;2023-01-20T13:47:07;570.72;;;235.00;;
76617;SDS011;65509;42.816;74.648;2023-01-20T13:49:45;626.15;;;254.40;;
76617;SDS011;65509;42.816;74.648;2023-01-20T13:52:12;582.05;;;240.65;;
76617;SDS011;65509;42.816;74.648;2023-01-20T13:54:44;618.60;;;256.45;;
76617;SDS011;65509;42.816;74.648;2023-01-20T13:59:52;679.75;;;290.25;;
76617;SDS011;65509;42.816;74.648;2023-01-20T14:02:18;660.25;;;277.50;;
76617;SDS011;65509;42.816;74.648;2023-01-20T14:04:44;647.63;;;285.45;;
76617;SDS011;65509;42.816;74.648;2023-01-20T14:07:20;615.53;;;263.00;;
76617;SDS011;65509;42.816;74.648;2023-01-20T14:09:49;670.85;;;291.13;;
76617;SDS011;65509;42.816;74.648;2023-01-20T14:12:15;651.60;;;270.80;;
76617;SDS011;65509;42.816;74.648;2023-01-20T14:14:40;647.72;;;272.20;;
76617;SDS011;65509;42.816;74.648;2023-01-20T14:17:08;649.22;;;274.48;;
76617;SDS011;65509;42.816;74.648;2023-01-20T14:19:36;633.67;;;258.63;;
76617;SDS011;65509;42.816;74.648;2023-01-20T14:22:03;597.30;;;246.45;;
76617;SDS011;65509;42.816;74.648;2023-01-20T14:24:43;564.08;;;229.85;;
76617;SDS011;65509;42.816;74.648;2023-01-20T14:27:21;561.47;;;227.13;;
76617;SDS011;65509;42.816;74.648;2023-01-20T14:29:51;537.60;;;218.35;;
76617;SDS011;65509;42.816;74.648;2023-01-20T14:34:43;551.47;;;216.02;;
76617;SDS011;65509;42.816;74.648;2023-01-20T14:37:20;540.40;;;217.20;;
76617;SDS011;65509;42.816;74.648;2023-01-20T14:39:47;589.53;;;243.77;;
76617;SDS011;65509;42.816;74.648;2023-01-20T14:42:17;600.05;;;245.60;;
76617;SDS011;65509;42.816;74.648;2023-01-20T14:44:45;600.13;;;251.88;;
76617;SDS011;65509;42.816;74.648;2023-01-20T14:47:10;555.28;;;227.45;;
76617;SDS011;65509;42.816;74.648;2023-01-20T14:49:39;536.50;;;219.38;;
76617;SDS011;65509;42.816;74.648;2023-01-20T14:52:06;546.75;;;213.60;;
76617;SDS011;65509;42.816;74.648;2023-01-20T14:57:10;458.15;;;170.68;;
76617;SDS011;65509;42.816;74.648;2023-01-20T14:59:35;447.40;;;167.05;;
76617;SDS011;65509;42.816;74.648;2023-01-20T15:02:01;433.33;;;156.98;;
76617;SDS011;65509;42.816;74.648;2023-01-20T15:04:34;422.92;;;149.77;;
76617;SDS011;65509;42.816;74.648;2023-01-20T15:06:59;423.13;;;149.93;;
76617;SDS011;65509;42.816;74.648;2023-01-20T15:09:29;416.17;;;145.00;;
76617;SDS011;65509;42.816;74.648;2023-01-20T15:14:38;397.10;;;136.40;;
76617;SDS011;65509;42.816;74.648;2023-01-20T15:17:07;428.45;;;143.93;;
76617;SDS011;65509;42.816;74.648;2023-01-20T15:19:32;483.10;;;160.52;;
76617;SDS011;65509;42.816;74.648;2023-01-20T15:22:15;469.63;;;160.85;;
76617;SDS011;65509;42.816;74.648;2023-01-20T15:24:41;439.73;;;143.45;;
76617;SDS011;65509;42.816;74.648;2023-01-20T15:27:24;385.33;;;123.18;;
76617;SDS011;65509;42.816;74.648;2023-01-20T15:32:28;290.88;;;97.47;;
76617;SDS011;65509;42.816;74.648;2023-01-20T15:34:53;248.65;;;85.35;;
76617;SDS011;65509;42.816;74.648;2023-01-20T15:37:19;215.82;;;75.13;;
76617;SDS011;65509;42.816;74.648;2023-01-20T15:39:44;226.82;;;79.53;;
76617;SDS011;65509;42.816;74.648;2023-01-20T15:42:11;205.63;;;74.07;;
76617;SDS011;65509;42.816;74.648;2023-01-20T15:44:39;230.93;;;82.00;;
76617;SDS011;65509;42.816;74.648;2023-01-20T15:47:09;247.85;;;82.68;;
76617;SDS011;65509;42.816;74.648;2023-01-20T15:49:40;238.18;;;78.32;;
76617;SDS011;65509;42.816;74.648;2023-01-20T15:52:08;231.48;;;78.18;;
76617;SDS011;65509;42.816;74.648;2023-01-20T15:54:33;231.25;;;79.38;;
76617;SDS011;65509;42.816;74.648;2023-01-20T15:56:59;233.60;;;81.18;;